Informes METAR cercanos


LEVC - Manises, Valencia, ESPAÑA
Distance from station: NNE 72km
Actualización: 16/06/2024 00:30
Parcialmente nuboso
Parcialmente nuboso
 Viento del ENE
Viento: ENE 13 km/h
Temperatura: 22°C
Rocío: 19°C
Humedad: 83%
Barómetro: 1015 hPa
Clouds: Parcialmente nuboso
Visibility: 10 km
Cloud details: Parcialmente nuboso 457 m
2024/06/15 22:30 LEVC 152230Z 06007KT 030V090 9999 SCT015 22/19 Q1015 NOSIG
LEAL - El Altet, Alicante, ESPAÑA
Distance from station: S 70km
Actualización: 16/06/2024 00:30
Lluvia débil, Showers, Muy nuboso
Lluvia débil, Showers, Muy nuboso
 Viento del N
Viento: N 7 km/h
Temperatura: 24°C
Rocío: 19°C
Humedad: 74%
Barómetro: 1013 hPa
Resumen: Lluvia débil, Showers
Clouds: Muy nuboso
Visibility: 10 km
Cloud details: Algunas nubes 396 m
Muy nuboso 914 m
2024/06/15 22:30 LEAL 152230Z 36004KT 320V060 9999 -SHRA FEW013CB BKN030 24/19 Q1013 TEMPO TS FEW040CB
 
LELC - San Javier, Murcia, ESPAÑA
Distance from station: SSO 188km
Actualización: 16/06/2024 00:30
Lluvia, Algunas nubes
Lluvia, Algunas nubes
 Viento del NNE
Viento: NNE 28 km/h
Temperatura: 23°C
Rocío: 21°C
Humedad: 89%
Barómetro: 1012 hPa
Resumen: Lluvia
Clouds: Algunas nubes
Visibility: 8 km
Cloud details: Algunas nubes 701 m
2024/06/15 22:30 LELC 152230Z AUTO 03015KT 8000 RA FEW023 23/21 Q1012
LEAB - Los Llanos, Albacete, ESPAÑA
Distance from station: O 143km
Actualización: 16/06/2024 00:30
Despejado
Despejado
 Viento del SO
Viento: SO 7 km/h
Temperatura: 21°C
Rocío: 5°C
Humedad: 35%
Barómetro: 1016 hPa
Resumen: Despejado
Visibility: Mas de 10 km
2024/06/15 22:30 LEAB 152230Z 22004KT CAVOK 21/05 Q1016 NOSIG